sensor_id;sensor_type;location;lat;lon;timestamp;P1;durP1;ratioP1;P2;durP2;ratioP2
65096;SDS011;51686;46.758;4.356;2024-01-15T00:01:43;28.75;;;13.82;;
65096;SDS011;51686;46.758;4.356;2024-01-15T00:04:30;28.08;;;13.20;;
65096;SDS011;51686;46.758;4.356;2024-01-15T00:07:17;28.33;;;13.95;;
65096;SDS011;51686;46.758;4.356;2024-01-15T00:10:05;27.75;;;13.20;;
65096;SDS011;51686;46.758;4.356;2024-01-15T00:12:52;29.50;;;13.70;;
65096;SDS011;51686;46.758;4.356;2024-01-15T00:15:39;29.00;;;13.63;;
65096;SDS011;51686;46.758;4.356;2024-01-15T00:18:26;28.67;;;13.27;;
65096;SDS011;51686;46.758;4.356;2024-01-15T00:21:13;26.42;;;13.00;;
65096;SDS011;51686;46.758;4.356;2024-01-15T00:24:00;31.02;;;14.35;;
65096;SDS011;51686;46.758;4.356;2024-01-15T00:26:47;28.52;;;13.57;;
65096;SDS011;51686;46.758;4.356;2024-01-15T00:29:34;29.52;;;12.38;;
65096;SDS011;51686;46.758;4.356;2024-01-15T00:32:21;28.85;;;12.43;;
65096;SDS011;51686;46.758;4.356;2024-01-15T00:35:08;26.63;;;12.35;;
65096;SDS011;51686;46.758;4.356;2024-01-15T00:37:55;27.33;;;12.13;;
65096;SDS011;51686;46.758;4.356;2024-01-15T00:40:42;30.27;;;13.07;;
65096;SDS011;51686;46.758;4.356;2024-01-15T00:43:29;27.23;;;12.52;;
65096;SDS011;51686;46.758;4.356;2024-01-15T00:46:16;29.58;;;12.98;;
65096;SDS011;51686;46.758;4.356;2024-01-15T00:49:03;28.92;;;12.80;;
65096;SDS011;51686;46.758;4.356;2024-01-15T00:51:49;26.70;;;12.07;;
65096;SDS011;51686;46.758;4.356;2024-01-15T00:54:36;29.52;;;12.38;;
65096;SDS011;51686;46.758;4.356;2024-01-15T00:57:24;29.42;;;13.45;;
65096;SDS011;51686;46.758;4.356;2024-01-15T01:00:11;27.08;;;12.18;;
65096;SDS011;51686;46.758;4.356;2024-01-15T01:02:59;30.25;;;13.05;;
65096;SDS011;51686;46.758;4.356;2024-01-15T01:05:45;30.88;;;12.88;;
65096;SDS011;51686;46.758;4.356;2024-01-15T01:08:34;30.52;;;13.88;;
65096;SDS011;51686;46.758;4.356;2024-01-15T01:11:21;26.45;;;12.15;;
65096;SDS011;51686;46.758;4.356;2024-01-15T01:14:08;29.40;;;12.45;;
65096;SDS011;51686;46.758;4.356;2024-01-15T01:16:55;30.50;;;12.82;;
65096;SDS011;51686;46.758;4.356;2024-01-15T01:19:42;31.63;;;12.13;;
65096;SDS011;51686;46.758;4.356;2024-01-15T01:22:29;29.83;;;12.75;;
65096;SDS011;51686;46.758;4.356;2024-01-15T01:25:16;29.08;;;13.13;;
65096;SDS011;51686;46.758;4.356;2024-01-15T01:28:03;30.70;;;13.20;;
65096;SDS011;51686;46.758;4.356;2024-01-15T01:30:50;29.77;;;12.40;;
65096;SDS011;51686;46.758;4.356;2024-01-15T01:33:38;30.67;;;13.43;;
65096;SDS011;51686;46.758;4.356;2024-01-15T01:36:26;30.02;;;12.52;;
65096;SDS011;51686;46.758;4.356;2024-01-15T01:39:13;30.95;;;13.73;;
65096;SDS011;51686;46.758;4.356;2024-01-15T01:42:00;30.60;;;13.25;;
65096;SDS011;51686;46.758;4.356;2024-01-15T01:44:47;31.98;;;13.38;;
65096;SDS011;51686;46.758;4.356;2024-01-15T01:47:34;29.45;;;12.48;;
65096;SDS011;51686;46.758;4.356;2024-01-15T01:50:21;26.88;;;12.27;;
65096;SDS011;51686;46.758;4.356;2024-01-15T01:53:08;30.75;;;12.48;;
65096;SDS011;51686;46.758;4.356;2024-01-15T01:55:56;25.30;;;11.23;;
65096;SDS011;51686;46.758;4.356;2024-01-15T01:58:44;28.30;;;12.15;;
65096;SDS011;51686;46.758;4.356;2024-01-15T02:01:31;27.40;;;11.10;;
65096;SDS011;51686;46.758;4.356;2024-01-15T02:04:18;25.95;;;11.30;;
65096;SDS011;51686;46.758;4.356;2024-01-15T02:07:07;27.83;;;11.98;;
65096;SDS011;51686;46.758;4.356;2024-01-15T02:09:56;29.30;;;11.82;;
65096;SDS011;51686;46.758;4.356;2024-01-15T02:12:43;28.48;;;10.60;;
65096;SDS011;51686;46.758;4.356;2024-01-15T02:15:31;27.70;;;11.57;;
65096;SDS011;51686;46.758;4.356;2024-01-15T02:18:18;24.98;;;11.25;;
65096;SDS011;51686;46.758;4.356;2024-01-15T02:21:05;26.10;;;11.57;;
65096;SDS011;51686;46.758;4.356;2024-01-15T02:23:52;23.98;;;9.50;;
65096;SDS011;51686;46.758;4.356;2024-01-15T02:26:38;28.08;;;10.55;;
65096;SDS011;51686;46.758;4.356;2024-01-15T02:29:26;24.25;;;9.70;;
65096;SDS011;51686;46.758;4.356;2024-01-15T02:32:12;25.20;;;9.88;;
65096;SDS011;51686;46.758;4.356;2024-01-15T02:34:59;24.95;;;10.32;;
65096;SDS011;51686;46.758;4.356;2024-01-15T02:37:46;25.27;;;10.63;;
65096;SDS011;51686;46.758;4.356;2024-01-15T02:40:33;26.65;;;10.45;;
65096;SDS011;51686;46.758;4.356;2024-01-15T02:43:20;29.08;;;11.00;;
65096;SDS011;51686;46.758;4.356;2024-01-15T02:46:07;22.83;;;9.77;;
65096;SDS011;51686;46.758;4.356;2024-01-15T02:48:54;25.83;;;10.48;;
65096;SDS011;51686;46.758;4.356;2024-01-15T02:51:41;24.15;;;9.57;;
65096;SDS011;51686;46.758;4.356;2024-01-15T02:54:28;25.50;;;9.90;;
65096;SDS011;51686;46.758;4.356;2024-01-15T02:57:15;26.95;;;10.52;;
65096;SDS011;51686;46.758;4.356;2024-01-15T03:00:02;28.67;;;11.38;;
65096;SDS011;51686;46.758;4.356;2024-01-15T03:02:50;26.23;;;10.52;;
65096;SDS011;51686;46.758;4.356;2024-01-15T03:05:37;27.30;;;10.88;;
65096;SDS011;51686;46.758;4.356;2024-01-15T03:08:24;31.33;;;11.68;;
65096;SDS011;51686;46.758;4.356;2024-01-15T03:11:11;24.92;;;10.02;;
65096;SDS011;51686;46.758;4.356;2024-01-15T03:13:58;26.67;;;10.35;;
65096;SDS011;51686;46.758;4.356;2024-01-15T03:16:45;26.83;;;10.30;;
65096;SDS011;51686;46.758;4.356;2024-01-15T03:19:34;25.40;;;10.77;;
65096;SDS011;51686;46.758;4.356;2024-01-15T03:25:08;25.08;;;10.27;;
65096;SDS011;51686;46.758;4.356;2024-01-15T03:27:55;26.85;;;10.38;;
65096;SDS011;51686;46.758;4.356;2024-01-15T03:30:42;23.40;;;9.70;;
65096;SDS011;51686;46.758;4.356;2024-01-15T03:33:29;23.95;;;10.05;;
65096;SDS011;51686;46.758;4.356;2024-01-15T03:36:16;24.40;;;10.00;;
65096;SDS011;51686;46.758;4.356;2024-01-15T03:39:03;24.08;;;9.88;;
65096;SDS011;51686;46.758;4.356;2024-01-15T03:41:50;25.50;;;10.13;;
65096;SDS011;51686;46.758;4.356;2024-01-15T03:44:37;24.08;;;9.32;;
65096;SDS011;51686;46.758;4.356;2024-01-15T03:47:24;21.48;;;9.50;;
65096;SDS011;51686;46.758;4.356;2024-01-15T03:50:12;25.17;;;10.15;;
65096;SDS011;51686;46.758;4.356;2024-01-15T03:52:59;25.65;;;10.32;;
65096;SDS011;51686;46.758;4.356;2024-01-15T03:55:46;22.33;;;8.77;;
65096;SDS011;51686;46.758;4.356;2024-01-15T03:58:33;23.42;;;9.25;;
65096;SDS011;51686;46.758;4.356;2024-01-15T04:01:20;22.02;;;8.90;;
65096;SDS011;51686;46.758;4.356;2024-01-15T04:04:07;23.45;;;8.48;;
65096;SDS011;51686;46.758;4.356;2024-01-15T04:06:54;22.40;;;8.57;;
65096;SDS011;51686;46.758;4.356;2024-01-15T04:09:41;21.08;;;8.27;;
65096;SDS011;51686;46.758;4.356;2024-01-15T04:12:28;19.90;;;8.50;;
65096;SDS011;51686;46.758;4.356;2024-01-15T04:15:15;22.20;;;9.02;;
65096;SDS011;51686;46.758;4.356;2024-01-15T04:18:02;26.23;;;9.35;;
65096;SDS011;51686;46.758;4.356;2024-01-15T04:20:49;22.23;;;8.13;;
65096;SDS011;51686;46.758;4.356;2024-01-15T04:23:36;22.75;;;9.63;;
65096;SDS011;51686;46.758;4.356;2024-01-15T04:26:23;21.63;;;8.85;;
65096;SDS011;51686;46.758;4.356;2024-01-15T04:29:10;22.38;;;8.82;;
65096;SDS011;51686;46.758;4.356;2024-01-15T04:31:57;22.05;;;9.15;;
65096;SDS011;51686;46.758;4.356;2024-01-15T04:34:44;22.42;;;9.48;;
65096;SDS011;51686;46.758;4.356;2024-01-15T04:37:31;22.95;;;8.32;;
65096;SDS011;51686;46.758;4.356;2024-01-15T04:40:18;19.92;;;7.68;;
65096;SDS011;51686;46.758;4.356;2024-01-15T04:43:05;20.35;;;8.50;;
65096;SDS011;51686;46.758;4.356;2024-01-15T04:45:51;21.13;;;8.10;;
65096;SDS011;51686;46.758;4.356;2024-01-15T04:48:38;18.83;;;7.43;;
65096;SDS011;51686;46.758;4.356;2024-01-15T04:51:25;17.63;;;7.50;;
65096;SDS011;51686;46.758;4.356;2024-01-15T04:54:12;19.65;;;8.02;;
65096;SDS011;51686;46.758;4.356;2024-01-15T04:57:04;20.65;;;7.88;;
65096;SDS011;51686;46.758;4.356;2024-01-15T04:59:51;18.67;;;7.70;;
65096;SDS011;51686;46.758;4.356;2024-01-15T05:02:37;18.60;;;7.65;;
65096;SDS011;51686;46.758;4.356;2024-01-15T05:05:24;16.33;;;7.50;;
65096;SDS011;51686;46.758;4.356;2024-01-15T05:08:12;18.83;;;7.57;;
65096;SDS011;51686;46.758;4.356;2024-01-15T05:10:59;17.65;;;7.60;;
65096;SDS011;51686;46.758;4.356;2024-01-15T05:13:46;16.85;;;7.00;;
65096;SDS011;51686;46.758;4.356;2024-01-15T05:16:33;16.05;;;6.88;;
65096;SDS011;51686;46.758;4.356;2024-01-15T05:19:20;19.75;;;7.90;;
65096;SDS011;51686;46.758;4.356;2024-01-15T05:22:07;17.65;;;7.43;;
65096;SDS011;51686;46.758;4.356;2024-01-15T05:24:54;17.10;;;6.63;;
65096;SDS011;51686;46.758;4.356;2024-01-15T05:27:41;18.52;;;7.03;;
65096;SDS011;51686;46.758;4.356;2024-01-15T05:30:28;17.05;;;6.95;;
65096;SDS011;51686;46.758;4.356;2024-01-15T05:33:15;16.35;;;6.78;;
65096;SDS011;51686;46.758;4.356;2024-01-15T05:36:02;16.55;;;6.75;;
65096;SDS011;51686;46.758;4.356;2024-01-15T05:38:49;16.27;;;7.10;;
65096;SDS011;51686;46.758;4.356;2024-01-15T05:41:36;15.88;;;7.00;;
65096;SDS011;51686;46.758;4.356;2024-01-15T05:44:23;16.25;;;6.45;;
65096;SDS011;51686;46.758;4.356;2024-01-15T05:47:10;17.23;;;6.68;;
65096;SDS011;51686;46.758;4.356;2024-01-15T05:49:57;16.77;;;7.40;;
65096;SDS011;51686;46.758;4.356;2024-01-15T05:52:44;17.08;;;7.10;;
65096;SDS011;51686;46.758;4.356;2024-01-15T05:55:31;17.73;;;7.45;;
65096;SDS011;51686;46.758;4.356;2024-01-15T05:58:18;17.35;;;7.10;;
65096;SDS011;51686;46.758;4.356;2024-01-15T06:01:05;17.25;;;7.07;;
65096;SDS011;51686;46.758;4.356;2024-01-15T06:03:52;15.27;;;6.38;;
65096;SDS011;51686;46.758;4.356;2024-01-15T06:06:39;15.43;;;6.63;;
65096;SDS011;51686;46.758;4.356;2024-01-15T06:09:26;16.80;;;7.32;;
65096;SDS011;51686;46.758;4.356;2024-01-15T06:12:14;19.13;;;7.03;;
65096;SDS011;51686;46.758;4.356;2024-01-15T06:15:01;18.25;;;7.43;;
65096;SDS011;51686;46.758;4.356;2024-01-15T06:17:49;17.35;;;6.75;;
65096;SDS011;51686;46.758;4.356;2024-01-15T06:20:36;18.75;;;7.40;;
65096;SDS011;51686;46.758;4.356;2024-01-15T06:23:23;19.52;;;8.35;;
65096;SDS011;51686;46.758;4.356;2024-01-15T06:26:12;15.70;;;6.60;;
65096;SDS011;51686;46.758;4.356;2024-01-15T06:28:59;19.35;;;7.53;;
65096;SDS011;51686;46.758;4.356;2024-01-15T06:31:46;15.57;;;6.47;;
65096;SDS011;51686;46.758;4.356;2024-01-15T06:34:32;17.75;;;6.72;;
65096;SDS011;51686;46.758;4.356;2024-01-15T06:37:20;17.70;;;7.22;;
65096;SDS011;51686;46.758;4.356;2024-01-15T06:40:07;18.05;;;6.35;;
65096;SDS011;51686;46.758;4.356;2024-01-15T06:42:54;15.60;;;6.90;;
65096;SDS011;51686;46.758;4.356;2024-01-15T06:45:41;15.43;;;6.95;;
65096;SDS011;51686;46.758;4.356;2024-01-15T06:48:28;18.40;;;7.10;;
65096;SDS011;51686;46.758;4.356;2024-01-15T06:51:15;16.00;;;7.47;;
65096;SDS011;51686;46.758;4.356;2024-01-15T06:54:03;16.15;;;6.30;;
65096;SDS011;51686;46.758;4.356;2024-01-15T06:56:50;17.58;;;6.93;;
65096;SDS011;51686;46.758;4.356;2024-01-15T06:59:37;15.88;;;6.72;;
65096;SDS011;51686;46.758;4.356;2024-01-15T07:02:24;17.25;;;7.13;;
65096;SDS011;51686;46.758;4.356;2024-01-15T07:05:11;15.07;;;7.05;;
65096;SDS011;51686;46.758;4.356;2024-01-15T07:07:58;18.17;;;7.60;;
65096;SDS011;51686;46.758;4.356;2024-01-15T07:10:45;17.48;;;7.60;;
65096;SDS011;51686;46.758;4.356;2024-01-15T07:13:32;17.98;;;7.53;;
65096;SDS011;51686;46.758;4.356;2024-01-15T07:16:19;16.45;;;6.70;;
65096;SDS011;51686;46.758;4.356;2024-01-15T07:19:22;17.65;;;6.82;;
65096;SDS011;51686;46.758;4.356;2024-01-15T07:22:09;17.20;;;6.93;;
65096;SDS011;51686;46.758;4.356;2024-01-15T07:24:56;16.08;;;7.03;;
65096;SDS011;51686;46.758;4.356;2024-01-15T07:27:43;16.50;;;6.90;;
65096;SDS011;51686;46.758;4.356;2024-01-15T07:30:31;15.20;;;6.82;;
65096;SDS011;51686;46.758;4.356;2024-01-15T07:33:18;15.70;;;6.40;;
65096;SDS011;51686;46.758;4.356;2024-01-15T07:36:05;16.52;;;6.68;;
65096;SDS011;51686;46.758;4.356;2024-01-15T07:38:53;15.77;;;6.75;;
65096;SDS011;51686;46.758;4.356;2024-01-15T07:41:40;17.10;;;6.57;;
65096;SDS011;51686;46.758;4.356;2024-01-15T07:44:26;15.32;;;7.20;;
65096;SDS011;51686;46.758;4.356;2024-01-15T07:47:13;15.88;;;6.72;;
65096;SDS011;51686;46.758;4.356;2024-01-15T07:50:00;14.93;;;6.65;;
65096;SDS011;51686;46.758;4.356;2024-01-15T07:52:51;14.52;;;6.10;;
65096;SDS011;51686;46.758;4.356;2024-01-15T07:55:39;15.25;;;6.22;;
65096;SDS011;51686;46.758;4.356;2024-01-15T07:58:26;16.05;;;6.60;;
65096;SDS011;51686;46.758;4.356;2024-01-15T08:01:13;15.48;;;6.88;;
65096;SDS011;51686;46.758;4.356;2024-01-15T08:04:00;14.25;;;6.30;;
65096;SDS011;51686;46.758;4.356;2024-01-15T08:06:47;12.52;;;5.78;;
65096;SDS011;51686;46.758;4.356;2024-01-15T08:09:34;14.55;;;6.00;;
65096;SDS011;51686;46.758;4.356;2024-01-15T08:12:21;15.13;;;6.38;;
65096;SDS011;51686;46.758;4.356;2024-01-15T08:15:09;13.95;;;5.78;;
65096;SDS011;51686;46.758;4.356;2024-01-15T08:17:56;13.70;;;5.30;;
65096;SDS011;51686;46.758;4.356;2024-01-15T08:20:43;13.63;;;5.57;;
65096;SDS011;51686;46.758;4.356;2024-01-15T08:23:30;12.93;;;5.30;;
65096;SDS011;51686;46.758;4.356;2024-01-15T08:26:17;13.13;;;5.68;;
65096;SDS011;51686;46.758;4.356;2024-01-15T08:29:04;12.80;;;6.22;;
65096;SDS011;51686;46.758;4.356;2024-01-15T08:31:51;13.07;;;5.13;;
65096;SDS011;51686;46.758;4.356;2024-01-15T08:34:39;13.43;;;5.53;;
65096;SDS011;51686;46.758;4.356;2024-01-15T08:37:26;13.38;;;5.65;;
65096;SDS011;51686;46.758;4.356;2024-01-15T08:40:13;14.30;;;5.30;;
65096;SDS011;51686;46.758;4.356;2024-01-15T08:43:00;11.40;;;5.10;;
65096;SDS011;51686;46.758;4.356;2024-01-15T08:45:48;15.00;;;5.65;;
65096;SDS011;51686;46.758;4.356;2024-01-15T08:48:35;13.63;;;5.78;;
65096;SDS011;51686;46.758;4.356;2024-01-15T08:51:23;13.63;;;5.35;;
65096;SDS011;51686;46.758;4.356;2024-01-15T08:54:10;12.27;;;5.35;;
65096;SDS011;51686;46.758;4.356;2024-01-15T08:56:57;12.98;;;5.80;;
65096;SDS011;51686;46.758;4.356;2024-01-15T08:59:44;12.25;;;5.53;;
65096;SDS011;51686;46.758;4.356;2024-01-15T09:02:31;12.73;;;5.45;;
65096;SDS011;51686;46.758;4.356;2024-01-15T09:05:18;13.82;;;5.65;;
65096;SDS011;51686;46.758;4.356;2024-01-15T09:08:05;13.77;;;5.68;;
65096;SDS011;51686;46.758;4.356;2024-01-15T09:10:52;13.15;;;4.75;;
65096;SDS011;51686;46.758;4.356;2024-01-15T09:13:39;12.60;;;5.45;;
65096;SDS011;51686;46.758;4.356;2024-01-15T09:16:26;11.52;;;4.82;;
65096;SDS011;51686;46.758;4.356;2024-01-15T09:19:13;11.82;;;4.93;;
65096;SDS011;51686;46.758;4.356;2024-01-15T09:22:00;12.52;;;4.93;;
65096;SDS011;51686;46.758;4.356;2024-01-15T09:24:47;11.95;;;4.60;;
65096;SDS011;51686;46.758;4.356;2024-01-15T09:27:34;13.75;;;5.40;;
65096;SDS011;51686;46.758;4.356;2024-01-15T09:30:21;12.85;;;5.28;;
65096;SDS011;51686;46.758;4.356;2024-01-15T09:33:08;10.85;;;4.57;;
65096;SDS011;51686;46.758;4.356;2024-01-15T09:35:56;12.68;;;4.95;;
65096;SDS011;51686;46.758;4.356;2024-01-15T09:38:43;12.00;;;5.00;;
65096;SDS011;51686;46.758;4.356;2024-01-15T09:41:30;11.43;;;4.55;;
65096;SDS011;51686;46.758;4.356;2024-01-15T09:44:16;11.38;;;4.70;;
65096;SDS011;51686;46.758;4.356;2024-01-15T09:47:04;12.38;;;4.90;;
65096;SDS011;51686;46.758;4.356;2024-01-15T09:49:51;12.85;;;5.07;;
65096;SDS011;51686;46.758;4.356;2024-01-15T09:52:38;12.10;;;4.82;;
65096;SDS011;51686;46.758;4.356;2024-01-15T09:55:26;13.23;;;5.00;;
65096;SDS011;51686;46.758;4.356;2024-01-15T09:58:14;11.77;;;4.90;;
65096;SDS011;51686;46.758;4.356;2024-01-15T10:01:01;11.82;;;5.13;;
65096;SDS011;51686;46.758;4.356;2024-01-15T10:03:54;12.98;;;5.18;;
65096;SDS011;51686;46.758;4.356;2024-01-15T10:06:44;12.55;;;5.40;;
65096;SDS011;51686;46.758;4.356;2024-01-15T10:09:34;11.02;;;5.10;;
65096;SDS011;51686;46.758;4.356;2024-01-15T10:12:22;12.30;;;5.28;;
65096;SDS011;51686;46.758;4.356;2024-01-15T10:15:10;12.95;;;5.45;;
65096;SDS011;51686;46.758;4.356;2024-01-15T10:17:58;10.70;;;5.03;;
65096;SDS011;51686;46.758;4.356;2024-01-15T10:20:46;13.32;;;4.80;;
65096;SDS011;51686;46.758;4.356;2024-01-15T10:23:33;13.48;;;5.45;;
65096;SDS011;51686;46.758;4.356;2024-01-15T10:26:24;10.43;;;4.85;;
65096;SDS011;51686;46.758;4.356;2024-01-15T10:29:11;12.63;;;4.85;;
65096;SDS011;51686;46.758;4.356;2024-01-15T10:31:58;12.80;;;4.90;;
65096;SDS011;51686;46.758;4.356;2024-01-15T10:34:46;12.05;;;5.18;;
65096;SDS011;51686;46.758;4.356;2024-01-15T10:37:33;11.85;;;4.88;;
65096;SDS011;51686;46.758;4.356;2024-01-15T10:40:20;12.77;;;5.22;;
65096;SDS011;51686;46.758;4.356;2024-01-15T10:43:07;11.63;;;5.05;;
65096;SDS011;51686;46.758;4.356;2024-01-15T10:45:55;12.13;;;5.07;;
65096;SDS011;51686;46.758;4.356;2024-01-15T10:48:42;12.77;;;5.47;;
65096;SDS011;51686;46.758;4.356;2024-01-15T10:51:29;11.80;;;4.88;;
65096;SDS011;51686;46.758;4.356;2024-01-15T10:54:16;12.50;;;5.22;;
65096;SDS011;51686;46.758;4.356;2024-01-15T10:57:03;11.38;;;4.85;;
65096;SDS011;51686;46.758;4.356;2024-01-15T10:59:56;10.57;;;4.55;;
65096;SDS011;51686;46.758;4.356;2024-01-15T11:02:42;11.65;;;4.45;;
65096;SDS011;51686;46.758;4.356;2024-01-15T11:05:32;11.57;;;4.10;;
65096;SDS011;51686;46.758;4.356;2024-01-15T11:08:20;11.80;;;4.57;;
65096;SDS011;51686;46.758;4.356;2024-01-15T11:11:08;10.77;;;4.43;;
65096;SDS011;51686;46.758;4.356;2024-01-15T11:13:56;10.75;;;4.68;;
65096;SDS011;51686;46.758;4.356;2024-01-15T11:16:56;10.57;;;4.20;;
65096;SDS011;51686;46.758;4.356;2024-01-15T11:19:48;10.18;;;4.30;;
65096;SDS011;51686;46.758;4.356;2024-01-15T11:25:35;11.50;;;4.80;;
65096;SDS011;51686;46.758;4.356;2024-01-15T11:28:46;10.38;;;4.03;;
65096;SDS011;51686;46.758;4.356;2024-01-15T11:40:38;10.27;;;4.22;;
65096;SDS011;51686;46.758;4.356;2024-01-15T11:43:26;11.07;;;4.63;;
65096;SDS011;51686;46.758;4.356;2024-01-15T11:46:13;9.80;;;4.10;;
65096;SDS011;51686;46.758;4.356;2024-01-15T11:49:03;11.18;;;4.10;;
65096;SDS011;51686;46.758;4.356;2024-01-15T11:51:52;9.20;;;4.10;;
65096;SDS011;51686;46.758;4.356;2024-01-15T11:54:40;9.68;;;4.10;;
65096;SDS011;51686;46.758;4.356;2024-01-15T11:57:33;10.85;;;4.22;;
65096;SDS011;51686;46.758;4.356;2024-01-15T12:00:24;11.52;;;4.30;;
65096;SDS011;51686;46.758;4.356;2024-01-15T12:03:11;11.38;;;4.65;;
65096;SDS011;51686;46.758;4.356;2024-01-15T12:05:58;9.32;;;3.97;;
65096;SDS011;51686;46.758;4.356;2024-01-15T12:08:46;9.77;;;4.13;;
65096;SDS011;51686;46.758;4.356;2024-01-15T12:11:34;9.65;;;4.00;;
65096;SDS011;51686;46.758;4.356;2024-01-15T12:14:23;9.25;;;3.80;;
65096;SDS011;51686;46.758;4.356;2024-01-15T12:17:10;9.80;;;4.20;;
65096;SDS011;51686;46.758;4.356;2024-01-15T12:19:57;9.65;;;4.07;;
65096;SDS011;51686;46.758;4.356;2024-01-15T12:22:45;8.95;;;3.47;;
65096;SDS011;51686;46.758;4.356;2024-01-15T12:25:46;9.70;;;3.78;;
65096;SDS011;51686;46.758;4.356;2024-01-15T12:28:34;9.48;;;3.88;;
65096;SDS011;51686;46.758;4.356;2024-01-15T12:31:20;11.27;;;4.40;;
65096;SDS011;51686;46.758;4.356;2024-01-15T12:34:07;10.70;;;4.10;;
65096;SDS011;51686;46.758;4.356;2024-01-15T12:36:56;9.75;;;4.00;;
65096;SDS011;51686;46.758;4.356;2024-01-15T12:39:46;11.52;;;4.95;;
65096;SDS011;51686;46.758;4.356;2024-01-15T12:50:10;12.20;;;4.70;;
65096;SDS011;51686;46.758;4.356;2024-01-15T12:54:14;10.40;;;4.95;;
65096;SDS011;51686;46.758;4.356;2024-01-15T12:57:22;13.90;;;4.70;;
65096;SDS011;51686;46.758;4.356;2024-01-15T13:00:09;11.48;;;5.13;;
65096;SDS011;51686;46.758;4.356;2024-01-15T13:03:01;10.80;;;4.15;;
65096;SDS011;51686;46.758;4.356;2024-01-15T13:08:39;10.45;;;4.45;;
65096;SDS011;51686;46.758;4.356;2024-01-15T13:11:26;9.50;;;4.15;;
65096;SDS011;51686;46.758;4.356;2024-01-15T13:14:13;10.55;;;4.30;;
65096;SDS011;51686;46.758;4.356;2024-01-15T13:17:00;10.45;;;4.35;;
65096;SDS011;51686;46.758;4.356;2024-01-15T13:19:48;9.48;;;4.38;;
65096;SDS011;51686;46.758;4.356;2024-01-15T13:22:35;11.10;;;4.40;;
65096;SDS011;51686;46.758;4.356;2024-01-15T13:25:22;10.23;;;3.88;;
65096;SDS011;51686;46.758;4.356;2024-01-15T13:28:09;10.48;;;4.40;;
65096;SDS011;51686;46.758;4.356;2024-01-15T13:30:56;10.73;;;4.22;;
65096;SDS011;51686;46.758;4.356;2024-01-15T13:33:43;9.32;;;4.30;;
65096;SDS011;51686;46.758;4.356;2024-01-15T13:36:30;8.48;;;3.85;;
65096;SDS011;51686;46.758;4.356;2024-01-15T13:39:17;9.10;;;3.75;;
65096;SDS011;51686;46.758;4.356;2024-01-15T13:42:06;9.98;;;4.10;;
65096;SDS011;51686;46.758;4.356;2024-01-15T13:44:53;9.23;;;3.50;;
65096;SDS011;51686;46.758;4.356;2024-01-15T13:47:42;9.85;;;4.13;;
65096;SDS011;51686;46.758;4.356;2024-01-15T13:50:30;9.65;;;3.53;;
65096;SDS011;51686;46.758;4.356;2024-01-15T13:53:17;9.27;;;4.20;;
65096;SDS011;51686;46.758;4.356;2024-01-15T13:56:06;10.05;;;4.28;;
65096;SDS011;51686;46.758;4.356;2024-01-15T13:58:53;8.95;;;3.72;;
65096;SDS011;51686;46.758;4.356;2024-01-15T14:01:42;9.38;;;4.10;;
65096;SDS011;51686;46.758;4.356;2024-01-15T14:04:29;9.50;;;3.97;;
65096;SDS011;51686;46.758;4.356;2024-01-15T14:07:16;9.30;;;3.70;;
65096;SDS011;51686;46.758;4.356;2024-01-15T14:10:04;9.45;;;3.70;;
65096;SDS011;51686;46.758;4.356;2024-01-15T14:12:51;9.57;;;4.13;;
65096;SDS011;51686;46.758;4.356;2024-01-15T14:15:38;9.50;;;4.35;;
65096;SDS011;51686;46.758;4.356;2024-01-15T14:18:26;9.77;;;3.75;;
65096;SDS011;51686;46.758;4.356;2024-01-15T14:21:19;9.98;;;4.03;;
65096;SDS011;51686;46.758;4.356;2024-01-15T14:24:06;9.73;;;3.80;;
65096;SDS011;51686;46.758;4.356;2024-01-15T14:26:54;9.15;;;4.20;;
65096;SDS011;51686;46.758;4.356;2024-01-15T14:29:41;9.80;;;3.90;;
65096;SDS011;51686;46.758;4.356;2024-01-15T14:32:28;9.10;;;4.05;;
65096;SDS011;51686;46.758;4.356;2024-01-15T14:35:16;10.23;;;3.90;;
65096;SDS011;51686;46.758;4.356;2024-01-15T14:38:03;10.60;;;4.22;;
65096;SDS011;51686;46.758;4.356;2024-01-15T14:40:50;9.95;;;4.20;;
65096;SDS011;51686;46.758;4.356;2024-01-15T14:43:37;8.30;;;3.80;;
65096;SDS011;51686;46.758;4.356;2024-01-15T14:46:24;9.15;;;3.80;;
65096;SDS011;51686;46.758;4.356;2024-01-15T14:49:11;9.52;;;4.07;;
65096;SDS011;51686;46.758;4.356;2024-01-15T14:51:58;9.70;;;4.13;;
65096;SDS011;51686;46.758;4.356;2024-01-15T14:54:45;9.80;;;3.97;;
65096;SDS011;51686;46.758;4.356;2024-01-15T15:00:21;9.82;;;3.95;;
65096;SDS011;51686;46.758;4.356;2024-01-15T15:03:09;9.05;;;3.50;;
65096;SDS011;51686;46.758;4.356;2024-01-15T15:05:57;9.07;;;3.88;;
65096;SDS011;51686;46.758;4.356;2024-01-15T15:08:44;10.70;;;4.07;;
65096;SDS011;51686;46.758;4.356;2024-01-15T15:11:31;8.85;;;3.75;;
65096;SDS011;51686;46.758;4.356;2024-01-15T15:14:18;8.43;;;3.67;;
65096;SDS011;51686;46.758;4.356;2024-01-15T15:17:05;8.70;;;3.60;;
65096;SDS011;51686;46.758;4.356;2024-01-15T15:19:51;9.57;;;3.90;;
65096;SDS011;51686;46.758;4.356;2024-01-15T15:22:42;9.07;;;3.60;;
65096;SDS011;51686;46.758;4.356;2024-01-15T15:25:29;10.15;;;4.05;;
65096;SDS011;51686;46.758;4.356;2024-01-15T15:28:16;9.18;;;4.05;;
65096;SDS011;51686;46.758;4.356;2024-01-15T15:31:03;8.85;;;3.70;;
65096;SDS011;51686;46.758;4.356;2024-01-15T15:33:50;8.93;;;3.95;;
65096;SDS011;51686;46.758;4.356;2024-01-15T15:36:37;9.05;;;3.80;;
65096;SDS011;51686;46.758;4.356;2024-01-15T15:39:25;10.35;;;4.10;;
65096;SDS011;51686;46.758;4.356;2024-01-15T15:42:12;9.35;;;3.40;;
65096;SDS011;51686;46.758;4.356;2024-01-15T15:45:00;10.60;;;4.20;;
65096;SDS011;51686;46.758;4.356;2024-01-15T15:47:48;10.10;;;4.10;;
65096;SDS011;51686;46.758;4.356;2024-01-15T15:50:35;10.45;;;4.32;;
65096;SDS011;51686;46.758;4.356;2024-01-15T15:53:24;9.15;;;3.78;;
65096;SDS011;51686;46.758;4.356;2024-01-15T15:56:11;10.63;;;4.53;;
65096;SDS011;51686;46.758;4.356;2024-01-15T15:58:58;10.40;;;3.97;;
65096;SDS011;51686;46.758;4.356;2024-01-15T16:01:47;9.98;;;3.75;;
65096;SDS011;51686;46.758;4.356;2024-01-15T16:04:34;10.37;;;4.07;;
65096;SDS011;51686;46.758;4.356;2024-01-15T16:07:21;9.00;;;4.10;;
65096;SDS011;51686;46.758;4.356;2024-01-15T16:10:09;8.65;;;3.78;;
65096;SDS011;51686;46.758;4.356;2024-01-15T16:12:56;8.98;;;3.80;;
65096;SDS011;51686;46.758;4.356;2024-01-15T16:15:43;9.73;;;4.05;;
65096;SDS011;51686;46.758;4.356;2024-01-15T16:18:30;9.68;;;3.90;;
65096;SDS011;51686;46.758;4.356;2024-01-15T16:21:37;8.38;;;3.63;;
65096;SDS011;51686;46.758;4.356;2024-01-15T16:24:44;8.15;;;3.80;;
65096;SDS011;51686;46.758;4.356;2024-01-15T16:27:38;8.88;;;4.00;;
65096;SDS011;51686;46.758;4.356;2024-01-15T16:30:27;8.05;;;3.40;;
65096;SDS011;51686;46.758;4.356;2024-01-15T16:33:28;8.90;;;3.80;;
65096;SDS011;51686;46.758;4.356;2024-01-15T16:36:15;8.35;;;3.72;;
65096;SDS011;51686;46.758;4.356;2024-01-15T16:39:02;9.25;;;3.72;;
65096;SDS011;51686;46.758;4.356;2024-01-15T16:41:49;9.88;;;3.90;;
65096;SDS011;51686;46.758;4.356;2024-01-15T16:44:36;9.20;;;3.53;;
65096;SDS011;51686;46.758;4.356;2024-01-15T16:47:23;8.93;;;3.70;;
65096;SDS011;51686;46.758;4.356;2024-01-15T16:50:10;9.63;;;4.07;;
65096;SDS011;51686;46.758;4.356;2024-01-15T16:52:57;9.80;;;3.72;;
65096;SDS011;51686;46.758;4.356;2024-01-15T16:55:44;9.93;;;4.65;;
65096;SDS011;51686;46.758;4.356;2024-01-15T16:58:31;9.77;;;3.90;;
65096;SDS011;51686;46.758;4.356;2024-01-15T17:01:18;8.48;;;3.72;;
65096;SDS011;51686;46.758;4.356;2024-01-15T17:04:05;9.15;;;4.05;;
65096;SDS011;51686;46.758;4.356;2024-01-15T17:06:52;8.93;;;4.13;;